Time;durP1;ratioP1;P1;durP2;ratioP2;P2;SDS_P1;SDS_P2;PMS_P1;PMS_P2;Temp;Humidity;BMP_temperature;BMP_pressure;BME280_temperature;BME280_humidity;BME280_pressure;Samples;Min_cycle;Max_cycle;Signal;HPM_P1;HPM_P2
2022/10/30 00:00:06;;;;;;;6.53;1.90;;;;;;;;;;5111070;28;20055;-74
2022/10/30 00:02:39;;;;;;;9.23;2.20;;;;;;;;;;5110373;28;20430;-75
2022/10/30 00:05:09;;;;;;;4.63;2.45;;;;;;;;;;5109405;28;20039;-74
2022/10/30 00:07:38;;;;;;;3.83;1.90;;;;;;;;;;5110909;28;20047;-73
2022/10/30 00:10:09;;;;;;;3.75;2.60;;;;;;;;;;5110951;28;20486;-73
2022/10/30 00:12:38;;;;;;;2.95;1.90;;;;;;;;;;5110939;28;20082;-74
2022/10/30 00:15:10;;;;;;;8.90;2.47;;;;;;;;;;5110306;28;20046;-73
2022/10/30 00:17:40;;;;;;;4.32;2.13;;;;;;;;;;5112385;27;20050;-74
2022/10/30 00:20:10;;;;;;;6.00;2.45;;;;;;;;;;5090066;28;20063;-73
2022/10/30 00:22:40;;;;;;;4.90;2.50;;;;;;;;;;5089609;28;20338;-73
2022/10/30 00:25:10;;;;;;;7.25;2.92;;;;;;;;;;5089725;28;20410;-73
2022/10/30 00:27:39;;;;;;;6.00;2.90;;;;;;;;;;5088255;28;20430;-73
2022/10/30 00:30:10;;;;;;;5.35;2.95;;;;;;;;;;5089347;28;20048;-73
2022/10/30 00:32:41;;;;;;;6.13;2.78;;;;;;;;;;5102914;27;20505;-73
2022/10/30 00:35:11;;;;;;;7.57;2.60;;;;;;;;;;5120627;27;20559;-74
2022/10/30 00:37:41;;;;;;;8.23;2.70;;;;;;;;;;5116820;27;20062;-73
2022/10/30 00:40:18;;;;;;;4.65;2.80;;;;;;;;;;5117537;27;20512;-74
2022/10/30 00:42:49;;;;;;;9.70;3.60;;;;;;;;;;5119131;27;20031;-74
2022/10/30 00:45:21;;;;;;;7.45;3.00;;;;;;;;;;5115041;27;20055;-75
2022/10/30 00:47:55;;;;;;;8.32;2.88;;;;;;;;;;5117366;27;20154;-74
2022/10/30 00:50:27;;;;;;;7.90;2.75;;;;;;;;;;5120807;27;20389;-74
2022/10/30 00:53:02;;;;;;;8.52;2.88;;;;;;;;;;5119043;27;20066;-73
2022/10/30 00:55:40;;;;;;;5.75;2.50;;;;;;;;;;5116868;27;20051;-73
2022/10/30 00:58:14;;;;;;;4.60;2.47;;;;;;;;;;5115985;27;20044;-73
2022/10/30 01:00:49;;;;;;;4.63;2.33;;;;;;;;;;5124430;27;20501;-73
2022/10/30 01:03:22;;;;;;;5.97;2.33;;;;;;;;;;5127992;27;20047;-73
2022/10/30 01:05:56;;;;;;;4.72;1.90;;;;;;;;;;5111431;27;20056;-75
2022/10/30 01:08:27;;;;;;;3.90;2.28;;;;;;;;;;5108834;28;20044;-75
2022/10/30 01:10:59;;;;;;;4.57;2.58;;;;;;;;;;5115394;27;20042;-75
2022/10/30 01:13:31;;;;;;;3.50;2.03;;;;;;;;;;5115812;27;20050;-74
2022/10/30 01:16:08;;;;;;;2.97;1.50;;;;;;;;;;5117968;27;20065;-73
2022/10/30 01:19:03;;;;;;;3.28;1.67;;;;;;;;;;5120215;27;20051;-74
2022/10/30 01:22:01;;;;;;;2.42;1.52;;;;;;;;;;5126279;27;20093;-74
2022/10/30 01:24:44;;;;;;;2.20;1.85;;;;;;;;;;5117800;27;20390;-73
2022/10/30 01:27:49;;;;;;;2.72;2.03;;;;;;;;;;5117736;27;20459;-76
2022/10/30 01:30:47;;;;;;;3.65;1.98;;;;;;;;;;5114766;27;20056;-73
2022/10/30 01:33:45;;;;;;;5.47;1.80;;;;;;;;;;5114334;27;20054;-74
2022/10/30 01:36:36;;;;;;;2.85;1.55;;;;;;;;;;5112942;27;20574;-73
2022/10/30 01:39:17;;;;;;;2.35;1.65;;;;;;;;;;5099208;27;20514;-76
2022/10/30 01:41:48;;;;;;;2.20;1.45;;;;;;;;;;5116145;27;20052;-75
2022/10/30 01:44:26;;;;;;;3.35;1.67;;;;;;;;;;5114982;27;20039;-75
2022/10/30 01:47:32;;;;;;;5.55;1.67;;;;;;;;;;5113487;27;20113;-75
2022/10/30 01:50:41;;;;;;;3.42;1.58;;;;;;;;;;5114202;27;20044;-75
2022/10/30 01:53:34;;;;;;;2.38;1.55;;;;;;;;;;5116140;27;20043;-75
2022/10/30 01:56:19;;;;;;;5.57;2.05;;;;;;;;;;5114650;27;20040;-74
2022/10/30 01:59:22;;;;;;;4.75;2.13;;;;;;;;;;5115985;27;20039;-75
2022/10/30 02:01:52;;;;;;;3.00;1.52;;;;;;;;;;5096116;27;20047;-75
2022/10/30 02:04:23;;;;;;;2.20;1.70;;;;;;;;;;5117005;27;20112;-73
2022/10/30 02:06:54;;;;;;;4.03;1.50;;;;;;;;;;5114164;27;20056;-74
2022/10/30 02:09:24;;;;;;;3.80;1.58;;;;;;;;;;5114315;27;20054;-74
2022/10/30 02:11:54;;;;;;;1.85;1.50;;;;;;;;;;5105998;28;20418;-73
2022/10/30 02:14:29;;;;;;;5.88;1.52;;;;;;;;;;5106640;28;20363;-78
2022/10/30 02:17:03;;;;;;;2.35;1.42;;;;;;;;;;5106472;28;20513;-73
2022/10/30 02:19:34;;;;;;;2.53;1.70;;;;;;;;;;5112808;27;20058;-75
2022/10/30 02:22:04;;;;;;;4.28;1.88;;;;;;;;;;5123555;27;20441;-75
2022/10/30 02:24:34;;;;;;;5.22;2.00;;;;;;;;;;5108500;27;20047;-73
2022/10/30 02:27:04;;;;;;;5.70;1.58;;;;;;;;;;5126172;27;20076;-75
2022/10/30 02:29:34;;;;;;;3.85;2.47;;;;;;;;;;5125974;27;20055;-73
2022/10/30 02:32:06;;;;;;;17.58;2.50;;;;;;;;;;5127425;27;20413;-76
2022/10/30 02:34:36;;;;;;;3.40;1.92;;;;;;;;;;5125865;27;20058;-73
2022/10/30 02:37:06;;;;;;;2.80;1.98;;;;;;;;;;5127372;27;20047;-75
2022/10/30 02:39:35;;;;;;;5.65;1.92;;;;;;;;;;5125946;27;20055;-74
2022/10/30 02:42:05;;;;;;;2.55;1.85;;;;;;;;;;5126468;27;20070;-75
2022/10/30 02:44:35;;;;;;;2.05;1.60;;;;;;;;;;5126518;27;20051;-73
2022/10/30 02:47:05;;;;;;;1.80;1.70;;;;;;;;;;5125850;27;20055;-73
2022/10/30 02:49:35;;;;;;;3.65;2.03;;;;;;;;;;5125715;27;20497;-75
2022/10/30 02:52:07;;;;;;;6.38;1.60;;;;;;;;;;5127738;27;20039;-73
2022/10/30 02:54:40;;;;;;;6.47;1.35;;;;;;;;;;5125627;27;20078;-76
2022/10/30 02:57:11;;;;;;;7.85;2.55;;;;;;;;;;5125714;27;20050;-75
2022/10/30 02:59:40;;;;;;;2.72;2.08;;;;;;;;;;5125647;27;20047;-74
2022/10/30 03:02:11;;;;;;;3.67;1.42;;;;;;;;;;5125295;27;20572;-74
2022/10/30 03:04:41;;;;;;;6.05;1.42;;;;;;;;;;5127972;27;20039;-75
2022/10/30 03:07:11;;;;;;;4.55;1.63;;;;;;;;;;5127894;27;20050;-72
2022/10/30 03:09:41;;;;;;;4.38;1.83;;;;;;;;;;5125980;27;20046;-74
2022/10/30 03:12:11;;;;;;;2.55;1.75;;;;;;;;;;5125539;27;20400;-75
2022/10/30 03:14:41;;;;;;;3.47;1.70;;;;;;;;;;5125594;27;20451;-74
2022/10/30 03:17:11;;;;;;;1.88;1.60;;;;;;;;;;5125767;27;20054;-74
2022/10/30 03:19:41;;;;;;;3.38;1.45;;;;;;;;;;5127467;27;20062;-73
2022/10/30 03:22:11;;;;;;;3.78;1.40;;;;;;;;;;5127485;27;20039;-75
2022/10/30 03:24:40;;;;;;;1.88;1.60;;;;;;;;;;5125426;27;20043;-74
2022/10/30 03:27:10;;;;;;;2.45;1.80;;;;;;;;;;5124744;27;20421;-74
2022/10/30 03:29:40;;;;;;;2.30;1.75;;;;;;;;;;5125735;27;20524;-74
2022/10/30 03:32:10;;;;;;;2.75;1.25;;;;;;;;;;5125298;27;20046;-75
2022/10/30 03:34:51;;;;;;;3.00;1.85;;;;;;;;;;5127372;27;20043;-74
2022/10/30 03:37:21;;;;;;;2.38;1.75;;;;;;;;;;5127236;28;20051;-74
2022/10/30 03:39:51;;;;;;;2.80;1.63;;;;;;;;;;5125277;28;20050;-74
2022/10/30 03:42:29;;;;;;;1.58;1.10;;;;;;;;;;5125128;28;20058;-75
2022/10/30 03:44:59;;;;;;;7.47;1.83;;;;;;;;;;5126977;28;20413;-75
2022/10/30 03:47:31;;;;;;;3.83;1.65;;;;;;;;;;5124852;28;20062;-73
2022/10/30 03:50:00;;;;;;;2.17;1.75;;;;;;;;;;5126750;28;20065;-74
2022/10/30 03:52:30;;;;;;;2.20;1.70;;;;;;;;;;5125216;28;20547;-73
2022/10/30 03:55:00;;;;;;;2.17;1.70;;;;;;;;;;5125090;28;20058;-73
2022/10/30 03:57:30;;;;;;;3.13;2.00;;;;;;;;;;5127169;28;20054;-74
2022/10/30 04:00:17;;;;;;;3.47;2.28;;;;;;;;;;5125396;28;20051;-74
2022/10/30 04:02:57;;;;;;;3.58;1.88;;;;;;;;;;5125206;28;20062;-74
2022/10/30 04:05:30;;;;;;;3.30;1.73;;;;;;;;;;5125171;28;20062;-74
2022/10/30 04:08:03;;;;;;;3.13;1.88;;;;;;;;;;5125063;28;20062;-73
2022/10/30 04:10:36;;;;;;;3.72;1.90;;;;;;;;;;5125145;28;20055;-75
2022/10/30 04:13:10;;;;;;;3.00;2.20;;;;;;;;;;5125369;28;20062;-75
2022/10/30 04:15:51;;;;;;;3.92;2.45;;;;;;;;;;5125061;28;20047;-73
2022/10/30 04:18:26;;;;;;;7.50;2.20;;;;;;;;;;5124730;28;20073;-75
2022/10/30 04:20:59;;;;;;;3.40;2.17;;;;;;;;;;5124893;28;20440;-72
2022/10/30 04:23:29;;;;;;;4.15;1.52;;;;;;;;;;5124834;28;20059;-73
2022/10/30 04:26:00;;;;;;;4.55;2.30;;;;;;;;;;5124879;28;20394;-74
2022/10/30 04:28:31;;;;;;;2.50;1.35;;;;;;;;;;5124631;28;20054;-75
2022/10/30 04:31:01;;;;;;;3.30;1.20;;;;;;;;;;5126654;28;20047;-75
2022/10/30 04:33:32;;;;;;;1.65;1.40;;;;;;;;;;5124767;28;20501;-75
2022/10/30 04:36:01;;;;;;;1.98;1.58;;;;;;;;;;5124415;28;20051;-72
2022/10/30 04:38:32;;;;;;;1.58;1.10;;;;;;;;;;5124780;28;20051;-74
2022/10/30 04:41:02;;;;;;;2.08;1.63;;;;;;;;;;5124813;28;20058;-74
2022/10/30 04:43:49;;;;;;;4.00;1.50;;;;;;;;;;5126650;27;20050;-75
2022/10/30 04:46:19;;;;;;;2.42;1.52;;;;;;;;;;5128214;27;20055;-73
2022/10/30 04:48:48;;;;;;;2.45;1.50;;;;;;;;;;5130469;27;20047;-75
2022/10/30 04:51:20;;;;;;;3.92;1.75;;;;;;;;;;5128287;27;20054;-73
2022/10/30 04:53:50;;;;;;;5.55;2.30;;;;;;;;;;5130264;27;20051;-74
2022/10/30 04:56:20;;;;;;;1.50;1.00;;;;;;;;;;5128168;27;20066;-73
2022/10/30 04:58:51;;;;;;;3.72;1.30;;;;;;;;;;5129836;27;20524;-76
2022/10/30 05:01:21;;;;;;;1.60;1.33;;;;;;;;;;5127932;27;20401;-73
2022/10/30 05:03:51;;;;;;;1.23;1.10;;;;;;;;;;5127841;27;20055;-75
2022/10/30 05:06:25;;;;;;;2.17;1.30;;;;;;;;;;5129693;27;20043;-75
2022/10/30 05:08:57;;;;;;;6.95;1.30;;;;;;;;;;5130495;27;20031;-74
2022/10/30 05:11:34;;;;;;;1.85;1.30;;;;;;;;;;5128809;27;20055;-73
2022/10/30 05:14:04;;;;;;;2.28;1.13;;;;;;;;;;5127825;27;20047;-75
2022/10/30 05:16:34;;;;;;;2.55;1.30;;;;;;;;;;5127753;27;20055;-75
2022/10/30 05:19:05;;;;;;;3.15;1.30;;;;;;;;;;5127855;27;20054;-72
2022/10/30 05:21:43;;;;;;;1.42;1.25;;;;;;;;;;5129379;27;20066;-72
2022/10/30 05:24:14;;;;;;;2.25;1.30;;;;;;;;;;5127433;27;20058;-75
2022/10/30 05:26:45;;;;;;;1.15;0.80;;;;;;;;;;5110675;27;20046;-74
2022/10/30 05:29:16;;;;;;;9.23;1.23;;;;;;;;;;5127650;27;20078;-75
2022/10/30 05:31:46;;;;;;;1.33;0.90;;;;;;;;;;5127755;27;20501;-73
2022/10/30 05:34:16;;;;;;;1.60;1.40;;;;;;;;;;5129241;27;20062;-74
2022/10/30 05:36:49;;;;;;;1.38;1.25;;;;;;;;;;5127425;27;20051;-74
2022/10/30 05:39:20;;;;;;;1.60;1.30;;;;;;;;;;5127442;27;20055;-74
2022/10/30 05:41:51;;;;;;;1.00;1.00;;;;;;;;;;5127843;27;20051;-74
2022/10/30 05:44:23;;;;;;;1.67;1.10;;;;;;;;;;5127254;27;20070;-72
2022/10/30 05:47:14;;;;;;;1.20;1.10;;;;;;;;;;5128099;27;20073;-74
2022/10/30 05:49:47;;;;;;;1.83;1.00;;;;;;;;;;5127231;27;20051;-75
2022/10/30 05:52:20;;;;;;;2.88;1.13;;;;;;;;;;5111161;27;20055;-72
2022/10/30 05:54:51;;;;;;;2.70;2.10;;;;;;;;;;5127047;27;20529;-75
2022/10/30 05:57:35;;;;;;;3.42;1.30;;;;;;;;;;5127594;27;20039;-74
2022/10/30 06:00:06;;;;;;;2.03;1.00;;;;;;;;;;5127521;27;20054;-73
2022/10/30 06:02:42;;;;;;;3.05;1.20;;;;;;;;;;5131193;27;20483;-75
2022/10/30 06:05:15;;;;;;;2.47;0.90;;;;;;;;;;5126845;27;20051;-74
2022/10/30 06:07:46;;;;;;;1.15;1.05;;;;;;;;;;5126917;27;20058;-73
2022/10/30 06:10:15;;;;;;;2.47;1.02;;;;;;;;;;5126517;27;20047;-73
2022/10/30 06:13:05;;;;;;;2.33;1.20;;;;;;;;;;5131217;27;20055;-73
2022/10/30 06:15:40;;;;;;;1.55;1.10;;;;;;;;;;5126919;27;20051;-74
2022/10/30 06:18:10;;;;;;;1.35;1.00;;;;;;;;;;5127190;27;20208;-74
2022/10/30 06:20:47;;;;;;;1.88;1.20;;;;;;;;;;5127321;27;20073;-76
2022/10/30 06:23:23;;;;;;;1.85;1.27;;;;;;;;;;5131578;27;20077;-74
2022/10/30 06:26:04;;;;;;;1.63;1.00;;;;;;;;;;5126477;27;20872;-73
2022/10/30 06:28:49;;;;;;;2.95;1.40;;;;;;;;;;5128165;27;20043;-74
2022/10/30 06:31:19;;;;;;;1.35;1.10;;;;;;;;;;5127094;27;20055;-75
2022/10/30 06:33:54;;;;;;;2.22;1.30;;;;;;;;;;5127967;27;20425;-75
2022/10/30 06:36:23;;;;;;;2.55;1.67;;;;;;;;;;5127840;27;20058;-74
2022/10/30 06:38:54;;;;;;;7.32;1.23;;;;;;;;;;5126456;27;20432;-74
2022/10/30 06:41:26;;;;;;;3.00;1.02;;;;;;;;;;5126344;27;20039;-74
2022/10/30 06:44:21;;;;;;;1.17;1.00;;;;;;;;;;5128232;27;20504;-74
2022/10/30 06:46:52;;;;;;;3.85;1.13;;;;;;;;;;5125859;27;20078;-74
2022/10/30 06:49:23;;;;;;;3.20;1.27;;;;;;;;;;5125821;27;20081;-72
2022/10/30 06:51:53;;;;;;;1.30;1.20;;;;;;;;;;5126308;27;20047;-73
2022/10/30 06:54:23;;;;;;;1.40;1.10;;;;;;;;;;5125930;27;20062;-72
2022/10/30 06:57:01;;;;;;;2.03;1.23;;;;;;;;;;5129760;27;20054;-72
2022/10/30 06:59:59;;;;;;;1.85;1.40;;;;;;;;;;5125957;27;20607;-74
2022/10/30 07:03:00;;;;;;;3.00;1.50;;;;;;;;;;5131014;27;20059;-74
2022/10/30 07:05:31;;;;;;;1.60;1.20;;;;;;;;;;5126095;27;20050;-75
2022/10/30 07:08:02;;;;;;;2.45;1.45;;;;;;;;;;5127210;27;20489;-74
2022/10/30 07:10:32;;;;;;;2.50;1.95;;;;;;;;;;5126062;27;20082;-73
2022/10/30 07:13:21;;;;;;;1.85;1.15;;;;;;;;;;5125983;27;20066;-75
2022/10/30 07:15:59;;;;;;;1.30;1.10;;;;;;;;;;5125348;27;20628;-73
2022/10/30 07:18:35;;;;;;;5.07;0.95;;;;;;;;;;5125356;27;20043;-75
2022/10/30 07:21:06;;;;;;;2.15;1.30;;;;;;;;;;5125252;27;20055;-74
2022/10/30 07:23:36;;;;;;;2.50;1.10;;;;;;;;;;5125462;27;20046;-72
2022/10/30 07:26:37;;;;;;;2.75;1.10;;;;;;;;;;5089073;27;20414;-74
2022/10/30 07:29:25;;;;;;;1.20;1.10;;;;;;;;;;5125534;27;20047;-73
2022/10/30 07:32:24;;;;;;;2.10;1.20;;;;;;;;;;5119420;27;20414;-75
2022/10/30 07:35:13;;;;;;;2.85;1.13;;;;;;;;;;5127557;27;20051;-73
2022/10/30 07:38:07;;;;;;;1.23;1.08;;;;;;;;;;5127726;27;20066;-74
2022/10/30 07:40:57;;;;;;;7.18;1.50;;;;;;;;;;5126774;28;20054;-73
2022/10/30 07:43:50;;;;;;;1.60;1.50;;;;;;;;;;5122089;28;20418;-74
2022/10/30 07:46:49;;;;;;;2.50;1.30;;;;;;;;;;5117794;28;20513;-75
2022/10/30 07:49:20;;;;;;;1.80;1.42;;;;;;;;;;5129457;27;20096;-74
2022/10/30 07:51:53;;;;;;;1.90;1.30;;;;;;;;;;5124902;28;20047;-73
2022/10/30 07:54:24;;;;;;;3.03;1.35;;;;;;;;;;5125862;28;20069;-75
2022/10/30 07:56:54;;;;;;;3.13;2.00;;;;;;;;;;5125142;28;20055;-75
2022/10/30 07:59:41;;;;;;;;;;;;;;;;;;5128850;27;20059;-72
2022/10/30 08:02:30;;;;;;;4.95;1.10;;;;;;;;;;5131524;27;19920;-73
2022/10/30 08:05:14;;;;;;;1.85;1.60;;;;;;;;;;5125441;28;20535;-73
2022/10/30 08:08:04;;;;;;;2.25;1.50;;;;;;;;;;5124937;28;20047;-74
2022/10/30 08:10:36;;;;;;;1.80;1.42;;;;;;;;;;5108172;28;20043;-74
2022/10/30 08:13:06;;;;;;;2.65;1.45;;;;;;;;;;5124428;28;20059;-73
2022/10/30 08:15:38;;;;;;;2.60;1.75;;;;;;;;;;5124764;28;20421;-74
2022/10/30 08:18:09;;;;;;;1.70;1.60;;;;;;;;;;5125502;27;20575;-75
2022/10/30 08:20:44;;;;;;;3.47;1.50;;;;;;;;;;5129244;27;20059;-73
2022/10/30 08:23:18;;;;;;;5.80;1.80;;;;;;;;;;5128965;27;20058;-75
2022/10/30 08:25:48;;;;;;;2.95;1.50;;;;;;;;;;5128957;27;20058;-77
2022/10/30 08:28:18;;;;;;;4.28;1.60;;;;;;;;;;5128801;27;20642;-75
2022/10/30 08:30:48;;;;;;;2.80;1.80;;;;;;;;;;5128683;27;20043;-74
2022/10/30 08:33:24;;;;;;;3.10;1.40;;;;;;;;;;5128436;27;20055;-72
2022/10/30 08:35:59;;;;;;;6.40;2.38;;;;;;;;;;5136271;27;20405;-75
2022/10/30 08:38:29;;;;;;;4.10;2.30;;;;;;;;;;5128380;27;20040;-72
2022/10/30 08:41:13;;;;;;;2.30;1.63;;;;;;;;;;5128363;27;20055;-74
2022/10/30 08:43:46;;;;;;;2.65;1.90;;;;;;;;;;5128146;27;20062;-74
2022/10/30 08:46:18;;;;;;;4.53;1.70;;;;;;;;;;5128330;27;20055;-73
2022/10/30 08:48:48;;;;;;;2.58;1.90;;;;;;;;;;5129305;27;20051;-72
2022/10/30 08:51:18;;;;;;;6.35;1.65;;;;;;;;;;5128479;27;20058;-75
2022/10/30 08:53:49;;;;;;;2.35;1.95;;;;;;;;;;5128473;27;20424;-74
2022/10/30 08:56:20;;;;;;;3.25;1.48;;;;;;;;;;5127990;27;20059;-76
2022/10/30 08:59:09;;;;;;;5.85;2.00;;;;;;;;;;5128381;27;20058;-74
2022/10/30 09:01:46;;;;;;;1.92;1.60;;;;;;;;;;5128202;27;20517;-73
2022/10/30 09:04:36;;;;;;;2.97;1.67;;;;;;;;;;5107797;27;20059;-72
2022/10/30 09:07:38;;;;;;;3.00;1.30;;;;;;;;;;5098840;27;20540;-73
2022/10/30 09:10:41;;;;;;;2.53;1.33;;;;;;;;;;5106527;27;20050;-74
2022/10/30 09:13:13;;;;;;;1.83;1.20;;;;;;;;;;5128152;27;20051;-73
2022/10/30 09:15:43;;;;;;;2.95;1.85;;;;;;;;;;5128013;27;20058;-74
2022/10/30 09:18:13;;;;;;;2.10;1.50;;;;;;;;;;5129523;27;20062;-74
2022/10/30 09:20:42;;;;;;;1.83;1.23;;;;;;;;;;5128111;27;20102;-73
2022/10/30 09:23:12;;;;;;;1.15;0.93;;;;;;;;;;5129727;27;20059;-73
2022/10/30 09:25:45;;;;;;;1.45;1.00;;;;;;;;;;5127868;27;20500;-75
2022/10/30 09:28:37;;;;;;;1.98;1.55;;;;;;;;;;5124384;27;20051;-75
2022/10/30 09:31:27;;;;;;;3.05;1.17;;;;;;;;;;5128965;27;20055;-74
2022/10/30 09:33:58;;;;;;;2.05;1.10;;;;;;;;;;5127317;27;20062;-75
2022/10/30 09:36:56;;;;;;;3.35;1.27;;;;;;;;;;5120645;27;20063;-74
2022/10/30 09:39:29;;;;;;;1.40;1.00;;;;;;;;;;5127655;27;20051;-75
2022/10/30 09:42:16;;;;;;;5.47;1.20;;;;;;;;;;5127130;27;20055;-74
2022/10/30 09:45:18;;;;;;;2.22;1.05;;;;;;;;;;5127507;27;20055;-74
2022/10/30 09:48:36;;;;;;;2.50;1.17;;;;;;;;;;5127267;27;20626;-75
2022/10/30 09:51:28;;;;;;;5.35;1.50;;;;;;;;;;5127472;27;20051;-74
2022/10/30 09:54:04;;;;;;;1.08;0.98;;;;;;;;;;5127772;27;20058;-74
2022/10/30 09:57:19;;;;;;;1.52;1.17;;;;;;;;;;5126863;27;20051;-73
2022/10/30 09:59:55;;;;;;;3.67;1.10;;;;;;;;;;5065046;28;20040;-74
2022/10/30 10:02:44;;;;;;;6.38;1.40;;;;;;;;;;5048075;28;20059;-75
2022/10/30 10:05:26;;;;;;;2.20;1.27;;;;;;;;;;5109803;27;20059;-74
2022/10/30 10:08:21;;;;;;;3.50;1.20;;;;;;;;;;5131539;27;20039;-75
2022/10/30 10:11:14;;;;;;;;;;;;;;;;;;5130269;27;20043;-75
2022/10/30 10:14:01;;;;;;;3.50;1.08;;;;;;;;;;5128737;27;19935;-73
2022/10/30 10:16:35;;;;;;;5.60;1.40;;;;;;;;;;5128657;27;20035;-73
2022/10/30 10:19:20;;;;;;;1.25;0.95;;;;;;;;;;5129156;27;20043;-74
2022/10/30 10:22:02;;;;;;;2.13;1.27;;;;;;;;;;5128280;27;20110;-74
2022/10/30 10:24:43;;;;;;;1.73;1.10;;;;;;;;;;5128311;27;20528;-73
2022/10/30 10:27:16;;;;;;;3.22;1.10;;;;;;;;;;5127956;27;20054;-73
2022/10/30 10:30:04;;;;;;;1.85;0.90;;;;;;;;;;5128373;27;20516;-77
2022/10/30 10:33:02;;;;;;;2.83;1.25;;;;;;;;;;5128035;27;20051;-75
2022/10/30 10:36:00;;;;;;;1.90;1.20;;;;;;;;;;5126514;27;20051;-74
2022/10/30 10:38:42;;;;;;;1.67;1.20;;;;;;;;;;5128001;27;20043;-75
2022/10/30 10:41:18;;;;;;;3.35;1.08;;;;;;;;;;5127870;27;20053;-74
2022/10/30 10:44:15;;;;;;;2.17;1.33;;;;;;;;;;5128340;27;20417;-75
2022/10/30 10:47:09;;;;;;;19.52;15.60;;;;;;;;;;5127643;27;20055;-75
2022/10/30 10:49:56;;;;;;;5.03;3.42;;;;;;;;;;5127787;27;20047;-73
2022/10/30 10:52:45;;;;;;;2.47;1.50;;;;;;;;;;5127698;27;20502;-76
2022/10/30 10:55:19;;;;;;;3.10;1.48;;;;;;;;;;5127637;27;20058;-74
2022/10/30 10:57:52;;;;;;;7.45;2.42;;;;;;;;;;5126013;27;20065;-77
2022/10/30 11:00:24;;;;;;;2.83;1.17;;;;;;;;;;5127889;27;20513;-75
2022/10/30 11:03:04;;;;;;;1.52;0.90;;;;;;;;;;5127223;27;20047;-74
2022/10/30 11:05:54;;;;;;;1.85;0.85;;;;;;;;;;5127580;27;20047;-74
2022/10/30 11:08:27;;;;;;;1.20;0.98;;;;;;;;;;5128162;27;20057;-73
2022/10/30 11:10:59;;;;;;;2.15;1.33;;;;;;;;;;5127166;27;20047;-74
2022/10/30 11:13:35;;;;;;;1.83;0.90;;;;;;;;;;5127477;27;20035;-75
2022/10/30 11:16:40;;;;;;;1.38;0.85;;;;;;;;;;5127799;27;20046;-73
2022/10/30 11:19:10;;;;;;;1.75;1.08;;;;;;;;;;5127067;27;20047;-73
2022/10/30 11:21:49;;;;;;;0.80;0.80;;;;;;;;;;5126554;27;20054;-75
2022/10/30 11:24:33;;;;;;;3.20;1.20;;;;;;;;;;5126660;27;20043;-74
2022/10/30 11:27:29;;;;;;;1.75;1.00;;;;;;;;;;5127346;27;20101;-74
2022/10/30 11:30:01;;;;;;;2.65;1.00;;;;;;;;;;5127217;27;20043;-73
2022/10/30 11:32:33;;;;;;;2.75;1.10;;;;;;;;;;5127435;27;20039;-74
2022/10/30 11:35:09;;;;;;;2.55;1.00;;;;;;;;;;5127886;27;20398;-75
2022/10/30 11:37:42;;;;;;;1.00;0.70;;;;;;;;;;5127337;27;20043;-74
2022/10/30 11:40:12;;;;;;;1.65;0.82;;;;;;;;;;5126932;27;20055;-73
2022/10/30 11:42:46;;;;;;;2.25;0.85;;;;;;;;;;5127259;28;20039;-74
2022/10/30 11:45:35;;;;;;;2.70;1.08;;;;;;;;;;5127057;28;20532;-74
2022/10/30 11:48:37;;;;;;;3.30;1.30;;;;;;;;;;5126605;28;20062;-73
2022/10/30 11:51:07;;;;;;;10.07;1.17;;;;;;;;;;5128210;28;20098;-77
2022/10/30 11:53:47;;;;;;;1.77;1.13;;;;;;;;;;5128242;27;20051;-75
2022/10/30 11:56:21;;;;;;;1.73;1.25;;;;;;;;;;5131213;27;20390;-74
2022/10/30 11:58:56;;;;;;;3.95;0.80;;;;;;;;;;5131075;27;20058;-76
2022/10/30 12:01:33;;;;;;;2.47;1.40;;;;;;;;;;5131023;27;20050;-75
2022/10/30 12:04:26;;;;;;;4.32;3.95;;;;;;;;;;5131190;27;20035;-73
2022/10/30 12:07:28;;;;;;;2.58;0.90;;;;;;;;;;5131508;27;20046;-74
2022/10/30 12:10:00;;;;;;;3.22;1.35;;;;;;;;;;5130912;27;20055;-75
2022/10/30 12:12:41;;;;;;;2.67;0.85;;;;;;;;;;5131010;27;20043;-73
2022/10/30 12:15:14;;;;;;;2.15;1.00;;;;;;;;;;5131058;27;20057;-75
2022/10/30 12:18:04;;;;;;;2.08;0.90;;;;;;;;;;5129339;27;20054;-74
2022/10/30 12:20:37;;;;;;;0.80;0.70;;;;;;;;;;5129924;27;20056;-75
2022/10/30 12:23:19;;;;;;;1.55;1.00;;;;;;;;;;5130767;27;20047;-75
2022/10/30 12:25:52;;;;;;;1.10;1.00;;;;;;;;;;5129929;27;20112;-74
2022/10/30 12:28:25;;;;;;;8.20;1.13;;;;;;;;;;5130640;27;20433;-73
2022/10/30 12:31:24;;;;;;;1.88;0.80;;;;;;;;;;5130124;27;20058;-73
2022/10/30 12:34:33;;;;;;;2.97;0.90;;;;;;;;;;5128417;27;20058;-73
2022/10/30 12:37:19;;;;;;;0.70;0.70;;;;;;;;;;5127954;27;20051;-73
2022/10/30 12:40:04;;;;;;;2.17;0.68;;;;;;;;;;5130952;27;20054;-75
2022/10/30 12:42:42;;;;;;;1.52;0.90;;;;;;;;;;5130588;27;20046;-74
2022/10/30 12:45:28;;;;;;;1.52;1.20;;;;;;;;;;5130560;27;20532;-73
2022/10/30 12:48:07;;;;;;;3.53;1.45;;;;;;;;;;5130731;27;20536;-73
2022/10/30 12:50:44;;;;;;;2.40;1.05;;;;;;;;;;5129970;27;20050;-74
2022/10/30 12:53:39;;;;;;;1.73;0.85;;;;;;;;;;5130257;27;20046;-74
2022/10/30 12:56:23;;;;;;;0.77;0.77;;;;;;;;;;5130250;27;20497;-75
2022/10/30 12:59:26;;;;;;;1.30;0.90;;;;;;;;;;5129875;27;20066;-73
2022/10/30 13:02:18;;;;;;;1.58;1.00;;;;;;;;;;5116730;27;20035;-73
2022/10/30 13:04:58;;;;;;;1.92;1.00;;;;;;;;;;5108892;28;20046;-73
2022/10/30 13:07:51;;;;;;;2.28;1.33;;;;;;;;;;5109492;28;20050;-73
2022/10/30 13:10:50;;;;;;;0.73;0.73;;;;;;;;;;5078675;28;20047;-77
2022/10/30 13:13:28;;;;;;;1.17;0.82;;;;;;;;;;5109604;28;20048;-73
2022/10/30 13:16:00;;;;;;;0.95;0.85;;;;;;;;;;5109136;28;20044;-74
2022/10/30 13:18:31;;;;;;;1.00;0.77;;;;;;;;;;5109250;28;20047;-74
2022/10/30 13:21:10;;;;;;;2.22;1.00;;;;;;;;;;5108793;28;20525;-74
2022/10/30 13:24:02;;;;;;;3.78;1.20;;;;;;;;;;5109125;28;20036;-74
2022/10/30 13:26:52;;;;;;;2.10;1.00;;;;;;;;;;5108663;28;20055;-73
2022/10/30 13:29:29;;;;;;;2.80;0.80;;;;;;;;;;5107196;28;20066;-74
2022/10/30 13:32:22;;;;;;;4.90;0.90;;;;;;;;;;5109009;28;20494;-74
2022/10/30 13:35:18;;;;;;;1.10;0.98;;;;;;;;;;5109547;28;20075;-74
2022/10/30 13:38:01;;;;;;;1.00;0.85;;;;;;;;;;5107722;28;20113;-75
2022/10/30 13:40:40;;;;;;;1.15;0.85;;;;;;;;;;5109053;28;20047;-78
2022/10/30 13:43:24;;;;;;;2.10;1.10;;;;;;;;;;5108680;28;20047;-75
2022/10/30 13:46:03;;;;;;;3.63;1.08;;;;;;;;;;5106977;28;20051;-77
2022/10/30 13:48:51;;;;;;;1.50;0.80;;;;;;;;;;5107918;28;20046;-75
2022/10/30 13:51:33;;;;;;;2.33;1.80;;;;;;;;;;5107029;28;20044;-74
2022/10/30 13:54:21;;;;;;;1.90;1.30;;;;;;;;;;5098267;28;20040;-76
2022/10/30 14:22:24;;;;;;;1.58;1.33;;;;;;;;;;5155843;27;20446;-74
2022/10/30 14:24:59;;;;;;;1.30;1.20;;;;;;;;;;5141016;27;20039;-74
2022/10/30 14:27:33;;;;;;;1.20;1.10;;;;;;;;;;5129583;27;20480;-76
2022/10/30 14:30:16;;;;;;;4.43;1.30;;;;;;;;;;5135457;27;20599;-76
2022/10/30 14:32:52;;;;;;;4.03;1.10;;;;;;;;;;5128212;27;20027;-73
2022/10/30 14:35:31;;;;;;;1.35;1.02;;;;;;;;;;5132113;27;20027;-74
2022/10/30 14:38:08;;;;;;;4.88;1.20;;;;;;;;;;5092372;28;20048;-78
2022/10/30 14:41:08;;;;;;;2.63;1.80;;;;;;;;;;5111314;28;20524;-78
2022/10/30 14:54:05;;;;;;;4.15;2.40;;;;;;;;;;5101232;27;20416;-77
2022/10/30 14:57:01;;;;;;;1.35;1.20;;;;;;;;;;5102584;28;20036;-76
2022/10/30 14:59:34;;;;;;;2.13;1.30;;;;;;;;;;5102425;28;20110;-76
2022/10/30 15:02:13;;;;;;;2.55;1.65;;;;;;;;;;5104375;28;20513;-76
2022/10/30 15:05:01;;;;;;;1.40;1.10;;;;;;;;;;5104269;28;20047;-75
2022/10/30 15:07:52;;;;;;;2.30;1.30;;;;;;;;;;5102812;28;20708;-77
2022/10/30 15:10:34;;;;;;;1.20;1.10;;;;;;;;;;5103617;28;20036;-75
2022/10/30 15:13:22;;;;;;;1.10;1.00;;;;;;;;;;5104030;28;20044;-78
2022/10/30 15:16:04;;;;;;;2.63;1.38;;;;;;;;;;5103475;28;20517;-75
2022/10/30 15:18:35;;;;;;;2.67;1.33;;;;;;;;;;5103474;28;20058;-76
2022/10/30 15:21:07;;;;;;;1.50;1.15;;;;;;;;;;5104416;28;20039;-75
2022/10/30 15:23:37;;;;;;;1.67;1.23;;;;;;;;;;5103770;28;20032;-76
2022/10/30 15:26:16;;;;;;;0.52;0.52;;;;;;;;;;5101767;28;20044;-78
2022/10/30 15:28:50;;;;;;;2.40;1.40;;;;;;;;;;5101270;28;20059;-76
2022/10/30 15:31:25;;;;;;;2.30;1.20;;;;;;;;;;5103315;28;20055;-79
2022/10/30 15:33:59;;;;;;;1.30;0.90;;;;;;;;;;5102999;28;20731;-77
2022/10/30 15:36:39;;;;;;;1.23;0.98;;;;;;;;;;5103322;28;20047;-74
2022/10/30 15:39:15;;;;;;;0.93;0.82;;;;;;;;;;5103638;28;20046;-75
2022/10/30 15:41:53;;;;;;;1.02;0.80;;;;;;;;;;5103287;28;20039;-75
2022/10/30 15:44:36;;;;;;;0.95;0.93;;;;;;;;;;5103262;28;20047;-77
2022/10/30 15:47:15;;;;;;;3.90;1.10;;;;;;;;;;5103985;28;20043;-76
2022/10/30 15:49:51;;;;;;;2.53;1.02;;;;;;;;;;5103239;28;20040;-79
2022/10/30 15:52:25;;;;;;;1.73;1.20;;;;;;;;;;5102525;28;20526;-78
2022/10/30 15:55:04;;;;;;;2.83;1.17;;;;;;;;;;5103197;28;20040;-75
2022/10/30 15:57:51;;;;;;;1.42;1.30;;;;;;;;;;5103131;28;20036;-75
2022/10/30 16:00:38;;;;;;;3.45;1.20;;;;;;;;;;5103169;28;20048;-77
2022/10/30 16:03:17;;;;;;;2.58;1.67;;;;;;;;;;5102954;28;20076;-76
2022/10/30 16:05:47;;;;;;;4.03;1.25;;;;;;;;;;5088844;28;20584;-77
2022/10/30 16:08:22;;;;;;;2.78;1.38;;;;;;;;;;5087383;28;20048;-76
2022/10/30 16:10:54;;;;;;;1.77;1.35;;;;;;;;;;5089035;28;20395;-75
2022/10/30 16:13:30;;;;;;;1.90;1.55;;;;;;;;;;5089333;28;20114;-76
2022/10/30 16:16:02;;;;;;;3.40;1.60;;;;;;;;;;5089424;28;20498;-76
2022/10/30 16:18:34;;;;;;;2.92;1.30;;;;;;;;;;5089112;28;20040;-75
2022/10/30 16:21:09;;;;;;;2.63;1.02;;;;;;;;;;5088869;28;20373;-79
2022/10/30 16:23:49;;;;;;;2.67;1.30;;;;;;;;;;5089073;28;20405;-76